createdAt,value
2019-05-15T00:00:39.935Z,92.00
2019-05-15T00:03:08.851Z,92.20
2019-05-15T00:05:39.148Z,92.20
2019-05-15T00:08:09.134Z,92.10
2019-05-15T00:10:39.152Z,92.00
2019-05-15T00:13:09.298Z,92.20
2019-05-15T00:15:40.057Z,92.00
2019-05-15T00:18:09.246Z,92.00
2019-05-15T00:20:40.648Z,92.40
2019-05-15T00:23:09.252Z,92.40
2019-05-15T00:25:39.705Z,92.10
2019-05-15T00:28:09.467Z,92.30
2019-05-15T00:30:38.958Z,92.10
2019-05-15T00:33:08.942Z,92.00
2019-05-15T00:35:39.416Z,92.20
2019-05-15T00:38:09.266Z,91.90
2019-05-15T00:40:39.190Z,92.00
2019-05-15T00:43:08.784Z,91.80
2019-05-15T00:45:38.568Z,91.70
2019-05-15T00:48:08.773Z,91.90
2019-05-15T00:50:39.275Z,91.90
2019-05-15T00:53:08.698Z,92.20
2019-05-15T00:55:38.774Z,91.90
2019-05-15T00:58:08.776Z,92.10
2019-05-15T01:00:43.062Z,91.80
2019-05-15T01:03:11.874Z,91.90
2019-05-15T01:05:40.682Z,92.00
2019-05-15T01:08:09.400Z,92.20
2019-05-15T01:10:38.710Z,92.10
2019-05-15T01:13:08.338Z,92.10
2019-05-15T01:15:38.807Z,91.90
2019-05-15T01:18:09.299Z,92.10
2019-05-15T01:20:39.011Z,91.80
2019-05-15T01:23:08.831Z,91.70
2019-05-15T01:25:38.977Z,91.70
2019-05-15T01:28:09.341Z,91.70
2019-05-15T01:30:39.314Z,91.60
2019-05-15T01:33:08.775Z,91.30
2019-05-15T01:35:38.344Z,91.40
2019-05-15T01:38:08.260Z,91.60
2019-05-15T01:40:38.648Z,91.50
2019-05-15T01:43:09.173Z,91.50
2019-05-15T01:45:39.517Z,91.60
2019-05-15T01:48:08.402Z,91.80
2019-05-15T01:50:38.833Z,91.70
2019-05-15T01:53:08.224Z,91.80
2019-05-15T01:55:39.314Z,91.40
2019-05-15T01:58:09.147Z,91.70
2019-05-15T02:00:39.128Z,91.40
2019-05-15T02:03:09.922Z,91.50
2019-05-15T02:05:39.133Z,91.50
2019-05-15T02:08:08.560Z,91.30
2019-05-15T02:10:39.266Z,91.20
2019-05-15T02:13:08.542Z,91.20
2019-05-15T02:15:39.580Z,91.40
2019-05-15T02:18:08.495Z,91.10
2019-05-15T02:20:38.876Z,91.20
2019-05-15T02:23:11.775Z,91.00
2019-05-15T02:25:38.768Z,90.90
2019-05-15T02:28:09.410Z,90.70
2019-05-15T02:30:40.521Z,90.80
2019-05-15T02:33:10.556Z,90.70
2019-05-15T02:35:39.511Z,91.00
2019-05-15T02:38:09.737Z,90.90
2019-05-15T02:40:40.484Z,90.90
2019-05-15T02:43:10.193Z,90.70
2019-05-15T02:45:41.917Z,90.90
2019-05-15T02:48:09.481Z,90.80
2019-05-15T02:50:39.126Z,91.00
2019-05-15T02:53:10.047Z,90.70
2019-05-15T02:55:40.255Z,90.50
2019-05-15T02:58:10.102Z,90.80
2019-05-15T03:00:47.255Z,90.60
2019-05-15T03:03:10.477Z,90.50
2019-05-15T03:05:40.826Z,90.60
2019-05-15T03:08:09.919Z,90.70
2019-05-15T03:10:40.404Z,90.60
2019-05-15T03:13:10.245Z,90.60
2019-05-15T03:15:40.648Z,90.40
2019-05-15T03:18:10.023Z,90.60
2019-05-15T03:20:39.343Z,90.50
2019-05-15T03:23:09.576Z,90.60
2019-05-15T03:25:40.410Z,90.50
2019-05-15T03:28:10.446Z,90.50
2019-05-15T03:31:06.980Z,90.40
2019-05-15T03:33:17.707Z,90.40
2019-05-15T03:35:43.215Z,90.30
2019-05-15T03:38:10.795Z,90.40
2019-05-15T03:40:39.981Z,90.30
2019-05-15T03:43:09.281Z,90.30
2019-05-15T03:45:40.502Z,90.20
2019-05-15T03:48:09.268Z,90.00
2019-05-15T03:50:40.221Z,90.10
2019-05-15T03:53:10.184Z,89.80
2019-05-15T03:55:40.473Z,89.80
2019-05-15T03:58:10.368Z,89.50
2019-05-15T04:00:39.999Z,89.60
2019-05-15T04:03:10.890Z,89.50
2019-05-15T04:05:39.370Z,89.80
2019-05-15T04:08:11.076Z,89.60
2019-05-15T04:10:39.782Z,89.60
2019-05-15T04:13:09.685Z,88.60
2019-05-15T04:15:39.763Z,89.30
2019-05-15T04:18:09.422Z,89.10
2019-05-15T04:20:40.667Z,89.20
2019-05-15T04:23:10.204Z,89.40
2019-05-15T04:25:39.492Z,88.90
2019-05-15T04:28:11.103Z,89.20
2019-05-15T04:30:39.751Z,88.90
2019-05-15T04:33:09.352Z,88.30
2019-05-15T04:35:40.157Z,88.00
2019-05-15T04:38:09.515Z,88.40
2019-05-15T04:40:39.830Z,87.60
2019-05-15T04:43:10.525Z,88.30
2019-05-15T04:45:39.820Z,88.10
2019-05-15T04:48:09.942Z,88.00
2019-05-15T04:50:39.842Z,87.60
2019-05-15T04:53:10.498Z,87.80
2019-05-15T04:55:40.645Z,87.70
2019-05-15T04:58:10.228Z,88.20
2019-05-15T05:00:54.101Z,87.00
2019-05-15T05:03:22.867Z,87.30
2019-05-15T05:05:51.512Z,87.60
2019-05-15T05:08:21.031Z,87.80
2019-05-15T05:10:50.099Z,87.60
2019-05-15T05:13:19.820Z,87.80
2019-05-15T05:15:50.283Z,87.10
2019-05-15T05:18:19.827Z,87.50
2019-05-15T05:20:48.855Z,87.50
2019-05-15T05:23:19.184Z,87.60
2019-05-15T05:25:49.214Z,86.90
2019-05-15T05:28:18.427Z,87.00
2019-05-15T05:30:48.401Z,87.20
2019-05-15T05:33:18.375Z,86.90
2019-05-15T05:35:48.971Z,86.80
2019-05-15T05:38:19.135Z,86.70
2019-05-15T05:40:49.470Z,86.90
2019-05-15T05:43:19.320Z,87.10
2019-05-15T05:45:49.586Z,86.70
2019-05-15T05:48:19.199Z,87.10
2019-05-15T05:50:49.573Z,86.80
2019-05-15T05:53:21.050Z,86.60
2019-05-15T05:55:52.598Z,86.80
2019-05-15T05:58:19.914Z,86.10
2019-05-15T06:00:49.311Z,86.00
2019-05-15T06:03:19.628Z,85.70
2019-05-15T06:05:49.594Z,85.60
2019-05-15T06:08:19.607Z,84.70
2019-05-15T06:10:49.482Z,85.20
2019-05-15T06:13:18.799Z,85.40
2019-05-15T06:15:48.859Z,85.00
2019-05-15T06:18:19.770Z,84.60
2019-05-15T06:20:49.440Z,84.90
2019-05-15T06:23:23.414Z,84.90
2019-05-15T06:25:49.522Z,84.90
2019-05-15T06:28:19.597Z,84.70
2019-05-15T06:30:48.881Z,84.80
2019-05-15T06:33:18.738Z,84.60
2019-05-15T06:35:48.883Z,84.90
2019-05-15T06:38:19.215Z,84.20
2019-05-15T06:40:49.543Z,83.90
2019-05-15T06:43:19.333Z,83.80
2019-05-15T06:45:48.948Z,83.70
2019-05-15T06:48:18.541Z,83.50
2019-05-15T06:50:48.963Z,83.20
2019-05-15T06:53:19.231Z,82.90
2019-05-15T06:55:48.751Z,82.60
2019-05-15T06:58:19.145Z,83.10
2019-05-15T07:00:49.116Z,83.10
2019-05-15T07:03:25.288Z,83.20
2019-05-15T07:05:50.793Z,83.00
2019-05-15T07:08:19.948Z,83.00
2019-05-15T07:10:48.922Z,83.50
2019-05-15T07:13:18.314Z,83.40
2019-05-15T07:15:49.468Z,83.30
2019-05-15T07:18:19.830Z,85.00
2019-05-15T07:20:49.041Z,85.30
2019-05-15T07:23:18.755Z,85.10
2019-05-15T07:25:49.689Z,86.60
2019-05-15T07:28:18.340Z,86.60
2019-05-15T07:30:49.415Z,85.70
2019-05-15T07:33:28.148Z,86.40
2019-05-15T07:35:49.218Z,84.90
2019-05-15T07:38:18.764Z,84.60
2019-05-15T07:40:55.439Z,85.00
2019-05-15T07:43:18.302Z,85.20
2019-05-15T07:45:53.716Z,84.50
2019-05-15T07:48:18.715Z,84.10
2019-05-15T07:50:49.669Z,84.10
2019-05-15T07:53:19.728Z,83.60
2019-05-15T07:55:50.667Z,83.60
2019-05-15T07:58:21.776Z,83.60
2019-05-15T08:00:50.313Z,83.80
2019-05-15T08:03:18.966Z,83.80
2019-05-15T08:05:58.867Z,83.60
2019-05-15T08:08:18.585Z,83.80
2019-05-15T08:10:49.060Z,84.20
2019-05-15T08:13:18.613Z,83.90
2019-05-15T08:15:48.749Z,84.20
2019-05-15T08:18:18.793Z,84.30
2019-05-15T08:20:48.938Z,84.40
2019-05-15T08:23:19.301Z,84.40
2019-05-15T08:25:48.763Z,84.60
2019-05-15T08:28:19.160Z,85.70
2019-05-15T08:30:49.470Z,85.30
2019-05-15T08:33:18.501Z,85.80
2019-05-15T08:35:50.817Z,85.80
2019-05-15T08:38:18.425Z,86.10
2019-05-15T08:40:48.893Z,86.30
2019-05-15T08:43:18.523Z,86.70
2019-05-15T08:45:49.692Z,86.90
2019-05-15T08:48:18.521Z,86.60
2019-05-15T08:50:48.674Z,87.10
2019-05-15T08:53:19.260Z,87.50
2019-05-15T08:55:48.985Z,87.20
2019-05-15T08:58:20.079Z,87.30
2019-05-15T09:00:52.456Z,87.50
2019-05-15T09:03:19.025Z,87.50
2019-05-15T09:05:48.476Z,87.90
2019-05-15T09:08:19.374Z,87.70
2019-05-15T09:10:50.272Z,88.80
2019-05-15T09:13:19.128Z,90.00
2019-05-15T09:15:48.965Z,90.10
2019-05-15T09:18:20.196Z,90.60
2019-05-15T09:20:49.278Z,90.70
2019-05-15T09:23:19.212Z,91.10
2019-05-15T09:25:49.326Z,91.40
2019-05-15T09:28:19.153Z,91.30
2019-05-15T09:30:48.492Z,91.70
2019-05-15T09:33:19.842Z,91.90
2019-05-15T09:35:49.008Z,92.00
2019-05-15T09:38:18.720Z,92.50
2019-05-15T09:40:50.317Z,92.60
2019-05-15T09:43:18.284Z,92.10
2019-05-15T09:45:49.409Z,92.60
2019-05-15T09:48:19.621Z,92.60
2019-05-15T09:50:49.434Z,92.90
2019-05-15T09:53:19.057Z,92.70
2019-05-15T09:55:49.330Z,92.60
2019-05-15T09:58:24.143Z,92.60
2019-05-15T10:00:53.637Z,92.90
2019-05-15T10:03:22.395Z,93.00
2019-05-15T10:05:50.996Z,92.90
2019-05-15T10:08:21.306Z,93.00
2019-05-15T10:10:50.036Z,93.00
2019-05-15T10:13:19.033Z,93.20
2019-05-15T10:15:51.258Z,93.50
2019-05-15T10:18:20.167Z,93.60
2019-05-15T10:20:48.874Z,93.50
2019-05-15T10:23:19.453Z,93.80
2019-05-15T10:25:48.576Z,94.10
2019-05-15T10:28:19.318Z,93.90
2019-05-15T10:30:49.650Z,94.10
2019-05-15T10:33:19.642Z,94.00
2019-05-15T10:35:49.067Z,93.90
2019-05-15T10:38:19.389Z,94.20
2019-05-15T10:41:00.080Z,94.50
2019-05-15T10:43:20.688Z,94.50
2019-05-15T10:45:50.230Z,94.70
2019-05-15T10:48:19.338Z,95.30
2019-05-15T10:50:48.170Z,95.00
2019-05-15T10:53:18.791Z,94.90
2019-05-15T10:55:49.638Z,95.10
2019-05-15T10:58:21.733Z,95.10
2019-05-15T11:00:49.333Z,95.10
2019-05-15T11:03:19.980Z,95.10
2019-05-15T11:05:49.462Z,95.10
2019-05-15T11:08:21.011Z,95.00
2019-05-15T11:10:50.001Z,94.80
2019-05-15T11:13:21.317Z,94.40
2019-05-15T11:15:50.039Z,94.80
2019-05-15T11:18:18.640Z,94.80
2019-05-15T11:20:48.710Z,93.80
2019-05-15T11:23:19.982Z,94.00
2019-05-15T11:25:48.828Z,93.70
2019-05-15T11:28:17.802Z,94.10
2019-05-15T11:30:49.020Z,94.50
2019-05-15T11:33:18.830Z,94.30
2019-05-15T11:35:58.011Z,94.60
2019-05-15T11:38:19.534Z,94.10
2019-05-15T11:40:47.946Z,93.60
2019-05-15T11:43:19.379Z,93.40
2019-05-15T11:45:48.171Z,93.80
2019-05-15T11:48:20.197Z,93.50
2019-05-15T11:50:47.569Z,93.50
2019-05-15T11:53:18.935Z,93.60
2019-05-15T11:55:48.044Z,93.90
2019-05-15T11:58:18.893Z,93.10
2019-05-15T12:00:49.048Z,93.10
2019-05-15T12:03:18.788Z,93.30
2019-05-15T12:05:48.050Z,93.50
2019-05-15T12:08:18.570Z,93.40
2019-05-15T12:10:47.144Z,93.40
2019-05-15T12:13:15.866Z,93.30
2019-05-15T12:15:44.496Z,93.50
2019-05-15T12:18:13.118Z,93.90
2019-05-15T12:20:41.722Z,93.00
2019-05-15T12:23:10.442Z,93.10
2019-05-15T12:25:39.795Z,93.60
2019-05-15T12:28:09.442Z,93.50
2019-05-15T12:30:40.510Z,93.60
2019-05-15T12:33:09.783Z,93.70
2019-05-15T12:35:40.026Z,93.50
2019-05-15T12:38:09.996Z,93.60
2019-05-15T13:00:41.872Z,93.90
2019-05-15T13:03:10.499Z,94.00
2019-05-15T13:05:39.455Z,93.60
2019-05-15T13:08:08.581Z,93.90
2019-05-15T13:10:38.535Z,94.10
2019-05-15T13:13:09.674Z,93.90
2019-05-15T13:15:41.048Z,93.30
2019-05-15T13:18:13.884Z,93.10
2019-05-15T13:20:38.860Z,93.40
2019-05-15T13:23:08.769Z,93.60
2019-05-15T13:25:39.473Z,93.60
2019-05-15T13:28:08.918Z,94.00
2019-05-15T13:30:41.330Z,93.70
2019-05-15T13:33:09.780Z,93.80
2019-05-15T13:35:38.668Z,93.50
2019-05-15T13:38:09.995Z,94.00
2019-05-15T13:40:41.144Z,94.00
2019-05-15T13:43:08.692Z,94.20
2019-05-15T13:45:38.742Z,94.10
2019-05-15T13:48:08.792Z,94.20
2019-05-15T13:50:40.543Z,94.30
2019-05-15T13:53:10.759Z,94.10
2019-05-15T13:55:42.240Z,93.60
2019-05-15T13:58:09.295Z,93.60
2019-05-15T14:00:39.116Z,93.70
2019-05-15T14:03:09.259Z,93.90
2019-05-15T14:05:38.576Z,94.10
2019-05-15T14:08:08.492Z,94.20
2019-05-15T14:10:38.618Z,94.40
2019-05-15T14:13:07.551Z,94.50
2019-05-15T14:15:38.251Z,94.30
2019-05-15T14:18:08.569Z,94.60
2019-05-15T14:20:38.737Z,94.70
2019-05-15T14:23:08.725Z,94.70
2019-05-15T14:25:38.752Z,94.70
2019-05-15T14:28:08.775Z,94.60
2019-05-15T14:30:37.858Z,94.60
2019-05-15T14:33:08.433Z,94.70
2019-05-15T14:35:37.921Z,94.40
2019-05-15T14:38:10.093Z,94.50
2019-05-15T14:40:37.393Z,94.40
2019-05-15T14:43:08.743Z,94.50
2019-05-15T14:45:38.591Z,94.60
2019-05-15T14:48:08.854Z,94.90
2019-05-15T14:50:38.654Z,95.00
2019-05-15T14:53:09.588Z,94.90
2019-05-15T14:55:43.966Z,95.00
2019-05-15T14:58:08.619Z,94.80
2019-05-15T15:00:41.558Z,94.90
2019-05-15T15:03:09.725Z,95.00
2019-05-15T15:05:39.021Z,94.50
2019-05-15T15:08:20.837Z,93.90
2019-05-15T15:10:38.584Z,93.60
2019-05-15T15:13:09.303Z,94.00
2019-05-15T15:15:38.096Z,94.30
2019-05-15T15:18:08.245Z,94.40
2019-05-15T15:20:38.037Z,94.30
2019-05-15T15:23:08.552Z,94.30
2019-05-15T15:25:39.703Z,94.60
2019-05-15T15:28:08.510Z,94.80
2019-05-15T15:30:38.460Z,95.10
2019-05-15T15:33:08.609Z,94.90
2019-05-15T15:35:38.429Z,94.40
2019-05-15T15:38:12.663Z,94.70
2019-05-15T15:40:38.866Z,94.80
2019-05-15T15:43:08.961Z,95.20
2019-05-15T15:45:39.074Z,95.00
2019-05-15T15:48:08.485Z,94.80
2019-05-15T15:50:38.296Z,94.50
2019-05-15T15:53:09.256Z,94.50
2019-05-15T15:55:38.719Z,94.80
2019-05-15T15:58:08.776Z,94.70
2019-05-15T16:00:38.345Z,94.70
2019-05-15T16:03:08.523Z,94.90
2019-05-15T16:05:38.468Z,94.80
2019-05-15T16:08:08.564Z,94.60
2019-05-15T16:10:38.087Z,94.50
2019-05-15T16:13:09.293Z,94.70
2019-05-15T16:15:38.497Z,94.30
2019-05-15T16:18:09.005Z,94.40
2019-05-15T16:20:39.609Z,94.60
2019-05-15T16:23:08.721Z,94.50
2019-05-15T16:25:38.549Z,94.40
2019-05-15T16:28:08.771Z,94.40
2019-05-15T16:30:50.738Z,94.50
2019-05-15T16:33:09.429Z,93.70
2019-05-15T16:35:38.577Z,93.70
2019-05-15T16:38:09.271Z,94.20
2019-05-15T16:40:38.339Z,94.60
2019-05-15T16:43:07.257Z,94.50
2019-05-15T16:45:38.545Z,94.20
2019-05-15T16:48:10.989Z,94.50
2019-05-15T16:50:39.695Z,94.60
2019-05-15T16:53:09.189Z,94.70
2019-05-15T16:55:38.106Z,94.50
2019-05-15T16:58:09.180Z,94.30
2019-05-15T17:00:38.483Z,94.40
2019-05-15T17:03:13.895Z,94.30
2019-05-15T17:05:38.704Z,94.60
2019-05-15T17:08:09.057Z,94.50
2019-05-15T17:10:38.791Z,94.30
2019-05-15T17:13:08.756Z,94.60
2019-05-15T17:15:38.455Z,94.70
2019-05-15T17:18:08.964Z,94.40
2019-05-15T17:20:37.803Z,94.40
2019-05-15T17:23:08.583Z,93.70
2019-05-15T17:25:38.259Z,94.00
2019-05-15T17:28:09.105Z,94.10
2019-05-15T17:30:38.398Z,94.20
2019-05-15T17:33:07.386Z,94.10
2019-05-15T17:35:38.031Z,94.00
2019-05-15T17:38:06.448Z,94.40
2019-05-15T17:40:35.076Z,94.70
2019-05-15T17:43:03.789Z,94.50
2019-05-15T17:45:32.767Z,94.40
2019-05-15T17:48:01.559Z,94.40
2019-05-15T17:50:43.490Z,94.70
2019-05-15T17:53:00.603Z,94.70
2019-05-15T17:55:29.275Z,94.90
2019-05-15T17:58:00.931Z,94.80
2019-05-15T18:00:28.778Z,94.90
2019-05-15T18:02:57.796Z,95.00
2019-05-15T18:05:28.313Z,95.10
2019-05-15T18:07:58.419Z,95.10
2019-05-15T18:10:27.910Z,95.00
2019-05-15T18:12:58.321Z,95.10
2019-05-15T18:15:27.316Z,95.30
2019-05-15T18:17:58.909Z,95.10
2019-05-15T18:20:29.449Z,95.20
2019-05-15T18:22:59.077Z,95.00
2019-05-15T18:25:28.120Z,95.20
2019-05-15T18:27:59.291Z,95.10
2019-05-15T18:30:28.138Z,94.90
2019-05-15T18:32:58.848Z,94.50
2019-05-15T18:35:32.925Z,94.10
2019-05-15T18:38:01.866Z,93.70
2019-05-15T18:40:30.576Z,93.60
2019-05-15T18:42:59.474Z,93.90
2019-05-15T18:45:29.043Z,93.60
2019-05-15T18:47:58.715Z,93.70
2019-05-15T18:50:28.471Z,94.10
2019-05-15T18:52:58.348Z,94.40
2019-05-15T18:55:27.415Z,94.50
2019-05-15T18:57:58.173Z,94.50
2019-05-15T19:00:29.232Z,94.70
2019-05-15T19:02:59.509Z,94.50
2019-05-15T19:05:31.811Z,94.60
2019-05-15T19:08:00.446Z,94.80
2019-05-15T19:10:29.047Z,94.80
2019-05-15T19:12:58.366Z,95.00
2019-05-15T19:15:28.722Z,95.00
2019-05-15T19:17:58.623Z,95.00
2019-05-15T19:20:28.082Z,94.90
2019-05-15T19:22:58.989Z,94.90
2019-05-15T19:25:28.545Z,95.10
2019-05-15T19:27:57.566Z,95.20
2019-05-15T19:30:28.879Z,95.10
2019-05-15T19:32:58.612Z,95.20
2019-05-15T19:35:28.015Z,95.20
2019-05-15T19:37:58.640Z,95.20
2019-05-15T19:40:28.387Z,95.20
2019-05-15T19:42:59.142Z,95.20
2019-05-15T19:45:28.285Z,95.20
2019-05-15T19:47:58.799Z,95.20
2019-05-15T19:50:28.697Z,95.20
2019-05-15T19:52:59.207Z,95.20
2019-05-15T19:55:28.320Z,95.10
2019-05-15T19:57:58.866Z,94.50
2019-05-15T20:00:28.454Z,94.60
2019-05-15T20:02:58.841Z,94.60
2019-05-15T20:05:29.152Z,94.60
2019-05-15T20:07:58.929Z,94.80
2019-05-15T20:10:29.302Z,94.90
2019-05-15T20:12:59.771Z,95.00
2019-05-15T20:15:28.783Z,95.00
2019-05-15T20:18:18.394Z,94.90
2019-05-15T20:20:47.764Z,95.00
2019-05-15T20:23:18.381Z,95.00
2019-05-15T20:25:47.088Z,94.90
2019-05-15T20:28:15.821Z,94.60
2019-05-15T20:30:44.528Z,94.50
2019-05-15T20:33:13.628Z,94.60
2019-05-15T20:35:42.309Z,94.70
2019-05-15T20:38:11.017Z,94.60
2019-05-15T20:40:39.729Z,94.50
2019-05-15T20:43:08.454Z,94.70
2019-05-15T20:45:37.227Z,94.60
2019-05-15T20:48:06.005Z,94.60
2019-05-15T20:50:35.574Z,94.50
2019-05-15T20:53:04.286Z,94.50
2019-05-15T20:55:33.041Z,94.50
2019-05-15T20:58:01.679Z,94.50
2019-05-15T21:00:30.470Z,94.70
2019-05-15T21:02:59.090Z,94.50
2019-05-15T21:05:28.097Z,94.50
2019-05-15T21:07:57.161Z,94.60
2019-05-15T21:10:25.941Z,94.50
2019-05-15T21:12:54.650Z,94.40
2019-05-15T21:15:23.388Z,94.40
2019-05-15T21:17:58.417Z,94.30
2019-05-15T21:20:22.442Z,94.70
2019-05-15T21:22:51.859Z,94.00
2019-05-15T21:25:20.623Z,94.10
2019-05-15T21:27:49.423Z,94.30
2019-05-15T21:30:19.002Z,94.20
2019-05-15T21:32:49.328Z,94.10
2019-05-15T21:35:18.442Z,94.00
2019-05-15T21:37:48.980Z,94.00
2019-05-15T21:40:18.328Z,94.10
2019-05-15T21:42:49.149Z,94.20
2019-05-15T21:45:18.863Z,94.20
2019-05-15T21:47:47.685Z,94.10
2019-05-15T21:50:19.299Z,94.10
2019-05-15T21:52:49.441Z,94.00
2019-05-15T21:55:18.791Z,94.00
2019-05-15T21:57:47.788Z,94.10
2019-05-15T22:00:29.763Z,94.00
2019-05-15T22:02:58.632Z,94.20
2019-05-15T22:05:28.228Z,94.00
2019-05-15T22:07:58.724Z,93.80
2019-05-15T22:10:28.743Z,94.00
2019-05-15T22:12:58.894Z,94.00
2019-05-15T22:15:28.728Z,94.10
2019-05-15T22:17:57.843Z,94.00
2019-05-15T22:20:30.251Z,93.70
2019-05-15T22:22:59.578Z,94.00
2019-05-15T22:25:28.083Z,93.80
2019-05-15T22:27:57.843Z,93.90
2019-05-15T22:30:30.038Z,94.10
2019-05-15T22:32:58.735Z,94.00
2019-05-15T22:35:29.360Z,94.30
2019-05-15T22:37:58.567Z,94.00
2019-05-15T22:40:29.012Z,94.20
2019-05-15T22:42:59.121Z,94.10
2019-05-15T22:45:28.643Z,94.10
2019-05-15T22:47:58.531Z,93.90
2019-05-15T22:50:28.088Z,94.10
2019-05-15T22:52:58.770Z,94.00
2019-05-15T22:55:28.906Z,93.70
2019-05-15T22:57:58.677Z,94.30
2019-05-15T23:00:29.111Z,94.00
2019-05-15T23:02:58.231Z,94.00
2019-05-15T23:05:29.268Z,93.90
2019-05-15T23:07:59.171Z,94.00
2019-05-15T23:10:29.196Z,94.00
2019-05-15T23:12:58.580Z,94.20
2019-05-15T23:15:28.139Z,94.20
2019-05-15T23:17:58.351Z,94.10
2019-05-15T23:20:28.647Z,94.00
2019-05-15T23:22:58.448Z,93.90
2019-05-15T23:25:28.933Z,94.00
2019-05-15T23:27:58.295Z,94.00
2019-05-15T23:30:28.790Z,94.00
2019-05-15T23:32:58.360Z,94.00
2019-05-15T23:35:35.410Z,94.00
2019-05-15T23:37:58.156Z,93.90
2019-05-15T23:40:28.762Z,93.90
2019-05-15T23:42:57.343Z,93.80
2019-05-15T23:45:26.023Z,93.90
2019-05-15T23:47:54.990Z,93.90
2019-05-15T23:50:23.657Z,94.00
2019-05-15T23:52:52.282Z,93.70
2019-05-15T23:55:20.886Z,93.80
2019-05-15T23:57:49.586Z,93.80
